Terminal Aerodrome Forecast
Issued by NWS

Home | Current Version | Previous Version | Text Only | Print | Product List | Glossary On
Versions: 1 2 3 4 5 6 7 8 9 10 11 12 13 14 15 16 17
583
FTUS46 KLOX 252346
TAFBUR
TAF
KBUR 252346Z 2600/2624 21007KT P6SM OVC110
     FM260300 VRB03KT P6SM BKN100
     FM261000 12006KT P6SM -SHRA SCT020 OVC040
     FM261400 16008KT 5SM -RA BR BKN015 OVC030
     FM261900 14007KT P6SM -SHRA SCT015 BKN030
     FM262200 15007KT P6SM VCSH SCT020 BKN040=

USA.gov is the U.S. government's official web portal to all federal, state and local government web resources and services.